Time;durP1;ratioP1;P1;durP2;ratioP2;P2;SDS_P1;SDS_P2;PMS_P1;PMS_P2;Temp;Humidity;BMP_temperature;BMP_pressure;BME280_temperature;BME280_humidity;BME280_pressure;Samples;Min_cycle;Max_cycle;Signal;HPM_P1;HPM_P2
2022/10/16 00:01:41;;;;;;;9.88;2.58;;;12.80;99.90;;;;;;4938101;29;20510;-77
2022/10/16 00:04:08;;;;;;;9.32;2.05;;;12.80;99.90;;;;;;4936470;28;20130;-77
2022/10/16 00:06:33;;;;;;;8.98;2.13;;;12.80;99.90;;;;;;4944788;29;20078;-77
2022/10/16 00:08:59;;;;;;;8.65;2.40;;;12.80;99.90;;;;;;4942345;29;20070;-77
2022/10/16 00:11:33;;;;;;;8.77;1.90;;;12.80;99.90;;;;;;4919653;28;20055;-77
2022/10/16 00:14:00;;;;;;;5.95;2.00;;;12.80;99.90;;;;;;4942627;28;20087;-77
2022/10/16 00:16:27;;;;;;;7.95;2.10;;;12.80;99.90;;;;;;4929303;29;20058;-77
2022/10/16 00:18:53;;;;;;;8.00;2.05;;;12.80;99.90;;;;;;4920678;29;20047;-77
2022/10/16 00:21:22;;;;;;;7.70;1.98;;;12.80;99.90;;;;;;4946271;29;20054;-77
2022/10/16 00:23:51;;;;;;;9.77;2.22;;;12.80;99.90;;;;;;4953538;28;20066;-77
2022/10/16 00:26:18;;;;;;;5.85;1.75;;;12.80;99.90;;;;;;4936505;29;20039;-77
2022/10/16 00:28:51;;;;;;;7.50;2.17;;;12.70;99.90;;;;;;4937763;29;20492;-77
2022/10/16 00:31:17;;;;;;;;;;;12.70;99.90;;;;;;4935850;29;20046;-77
2022/10/16 00:33:44;;;;;;;7.30;2.13;;;12.70;99.90;;;;;;4928262;29;19918;-77
2022/10/16 00:36:13;;;;;;;9.20;2.22;;;12.70;99.90;;;;;;4942595;29;20075;-77
2022/10/16 00:38:38;;;;;;;7.32;2.08;;;12.70;99.90;;;;;;4936406;29;20050;-77
2022/10/16 00:41:06;;;;;;;4.90;2.22;;;12.70;99.90;;;;;;4935176;29;20051;-77
2022/10/16 00:43:55;;;;;;;10.27;2.30;;;12.60;99.90;;;;;;4936350;29;20043;-77
2022/10/16 00:46:28;;;;;;;9.20;2.35;;;12.60;99.90;;;;;;4934177;29;20043;-77
2022/10/16 00:49:02;;;;;;;7.78;2.10;;;12.60;99.90;;;;;;4924923;29;20047;-77
2022/10/16 00:51:55;;;;;;;6.90;2.10;;;12.60;99.90;;;;;;4932453;28;20051;-77
2022/10/16 00:54:29;;;;;;;10.35;2.38;;;12.50;99.90;;;;;;4921943;29;20075;-77
2022/10/16 00:56:58;;;;;;;6.70;2.17;;;12.50;99.90;;;;;;4942075;29;20031;-77
2022/10/16 00:59:30;;;;;;;6.90;2.22;;;12.50;99.90;;;;;;4927716;29;20056;-77
2022/10/16 01:01:58;;;;;;;8.10;2.28;;;12.50;99.90;;;;;;4930104;29;20051;-77
2022/10/16 01:04:25;;;;;;;11.30;2.10;;;12.50;99.90;;;;;;4913929;29;20039;-77
2022/10/16 01:07:05;;;;;;;5.38;2.00;;;12.50;99.90;;;;;;4939413;29;20110;-77
2022/10/16 01:09:42;;;;;;;6.38;2.35;;;12.50;99.90;;;;;;4933648;29;20457;-77
2022/10/16 01:12:14;;;;;;;8.52;2.10;;;12.50;99.90;;;;;;4957902;28;20529;-77
2022/10/16 01:14:48;;;;;;;11.07;2.75;;;12.50;99.90;;;;;;4936600;29;20035;-77
2022/10/16 01:17:45;;;;;;;6.18;2.40;;;12.50;99.90;;;;;;4944059;28;20058;-77
2022/10/16 01:20:16;;;;;;;11.40;2.58;;;12.50;99.90;;;;;;4944244;29;20051;-77
2022/10/16 01:23:00;;;;;;;7.85;2.35;;;12.50;99.90;;;;;;4941047;29;20035;-77
2022/10/16 01:25:53;;;;;;;6.50;2.42;;;12.50;99.90;;;;;;4954404;28;20068;-77
2022/10/16 01:28:21;;;;;;;7.28;2.63;;;12.60;99.90;;;;;;4930077;29;20054;-77
2022/10/16 01:30:49;;;;;;;6.43;2.42;;;12.60;99.90;;;;;;4937750;28;20042;-77
2022/10/16 01:33:21;;;;;;;6.97;2.33;;;12.60;99.90;;;;;;4938301;29;20047;-77
2022/10/16 01:35:52;;;;;;;5.60;2.53;;;12.60;99.90;;;;;;4937125;29;20071;-77
2022/10/16 01:38:34;;;;;;;8.63;2.90;;;12.60;99.90;;;;;;4942225;29;20533;-77
2022/10/16 01:41:18;;;;;;;6.90;2.95;;;12.60;99.90;;;;;;4937525;29;20303;-77
2022/10/16 01:43:57;;;;;;;8.15;3.10;;;12.50;99.90;;;;;;4938223;29;20043;-77
2022/10/16 01:46:24;;;;;;;8.05;2.75;;;12.50;99.90;;;;;;4930282;29;20078;-77
2022/10/16 01:48:52;;;;;;;9.25;2.90;;;12.50;99.90;;;;;;4934087;29;20035;-77
2022/10/16 01:51:19;;;;;;;7.65;2.88;;;12.50;99.90;;;;;;4939917;28;20043;-77
2022/10/16 01:53:50;;;;;;;6.90;2.70;;;12.50;99.90;;;;;;4918942;29;20044;-77
2022/10/16 01:56:17;;;;;;;7.22;2.53;;;12.60;99.90;;;;;;4941721;28;20043;-77
2022/10/16 01:58:49;;;;;;;8.30;2.55;;;12.60;99.90;;;;;;4930668;29;20043;-77
2022/10/16 02:01:17;;;;;;;5.03;2.70;;;12.60;99.90;;;;;;4935101;29;20047;-77
2022/10/16 02:03:45;;;;;;;5.55;2.63;;;12.60;99.90;;;;;;4939668;29;20081;-77
2022/10/16 02:06:12;;;;;;;6.57;2.88;;;12.70;99.90;;;;;;4936865;29;20569;-77
2022/10/16 02:08:40;;;;;;;4.45;2.53;;;12.70;99.90;;;;;;4940606;28;20047;-77
2022/10/16 02:11:06;;;;;;;8.93;2.92;;;12.70;99.90;;;;;;4941583;29;20319;-77
2022/10/16 02:13:49;;;;;;;6.82;2.88;;;12.70;99.90;;;;;;4944566;29;20047;-77
2022/10/16 02:16:15;;;;;;;8.55;2.85;;;12.70;99.90;;;;;;4940863;29;20458;-77
2022/10/16 02:18:43;;;;;;;6.20;2.72;;;12.70;99.90;;;;;;4948772;29;20588;-77
2022/10/16 02:21:33;;;;;;;5.63;2.63;;;12.70;99.90;;;;;;4940566;28;20043;-77
2022/10/16 02:24:08;;;;;;;4.53;2.63;;;12.70;99.90;;;;;;4938259;29;20071;-76
2022/10/16 02:26:52;;;;;;;6.22;2.63;;;12.70;99.90;;;;;;4946370;29;20035;-77
2022/10/16 02:29:23;;;;;;;4.35;2.65;;;12.70;99.90;;;;;;4927136;28;20039;-76
2022/10/16 02:31:55;;;;;;;7.85;2.65;;;12.70;99.90;;;;;;4939121;29;20487;-77
2022/10/16 02:34:23;;;;;;;6.00;2.70;;;12.80;99.90;;;;;;4937574;29;20509;-77
2022/10/16 02:36:50;;;;;;;5.20;2.53;;;12.80;99.90;;;;;;4952570;28;20133;-77
2022/10/16 02:39:18;;;;;;;8.40;2.75;;;12.80;99.90;;;;;;4940244;28;20548;-77
2022/10/16 02:41:43;;;;;;;7.13;2.80;;;12.80;99.90;;;;;;4939560;29;20039;-77
2022/10/16 02:44:09;;;;;;;8.15;2.92;;;12.80;99.90;;;;;;4944421;29;20043;-77
2022/10/16 02:46:35;;;;;;;4.57;2.40;;;12.80;99.90;;;;;;4941425;29;20035;-77
2022/10/16 02:49:00;;;;;;;6.65;2.58;;;12.80;99.90;;;;;;4935565;29;20498;-77
2022/10/16 02:51:26;;;;;;;6.18;2.45;;;12.90;99.90;;;;;;4935768;29;20135;-77
2022/10/16 02:53:51;;;;;;;9.73;2.88;;;12.90;99.90;;;;;;4944799;29;20506;-77
2022/10/16 02:56:17;;;;;;;5.63;2.55;;;12.90;99.90;;;;;;4941951;29;20493;-77
2022/10/16 02:58:42;;;;;;;6.20;2.58;;;12.90;99.90;;;;;;4944240;29;20043;-77
2022/10/16 03:01:08;;;;;;;10.90;2.60;;;13.00;99.90;;;;;;4931665;29;20039;-77
2022/10/16 03:03:34;;;;;;;4.57;2.42;;;12.90;99.90;;;;;;4924331;29;20055;-77
2022/10/16 03:05:59;;;;;;;4.97;2.50;;;13.00;99.90;;;;;;4933961;29;20043;-77
2022/10/16 03:08:25;;;;;;;4.20;2.20;;;12.90;99.90;;;;;;4933537;29;20040;-77
2022/10/16 03:10:51;;;;;;;4.50;2.40;;;12.90;99.90;;;;;;4953868;28;20126;-77
2022/10/16 03:13:17;;;;;;;4.57;2.40;;;13.00;99.90;;;;;;4939305;29;20075;-77
2022/10/16 03:15:43;;;;;;;5.07;2.40;;;12.90;99.90;;;;;;4949662;29;20102;-77
2022/10/16 03:18:09;;;;;;;8.30;2.47;;;13.00;99.90;;;;;;4928157;29;20047;-77
2022/10/16 03:20:35;;;;;;;4.65;2.40;;;13.00;99.90;;;;;;4935259;28;20051;-77
2022/10/16 03:23:02;;;;;;;6.10;2.78;;;13.00;99.90;;;;;;4927399;29;20611;-77
2022/10/16 03:25:27;;;;;;;7.35;2.45;;;12.90;99.90;;;;;;4943693;29;20094;-77
2022/10/16 03:27:53;;;;;;;6.70;2.40;;;13.00;99.90;;;;;;4940912;29;20047;-77
2022/10/16 03:30:19;;;;;;;4.85;2.60;;;13.00;99.90;;;;;;4938432;29;20418;-77
2022/10/16 03:32:44;;;;;;;6.25;2.33;;;13.00;99.90;;;;;;4938158;29;20058;-77
2022/10/16 03:35:12;;;;;;;5.65;2.72;;;13.00;99.90;;;;;;4928907;29;20562;-77
2022/10/16 03:37:37;;;;;;;6.03;2.53;;;13.00;99.90;;;;;;4941762;29;20413;-77
2022/10/16 03:40:04;;;;;;;9.63;3.20;;;13.00;99.90;;;;;;4922739;29;20055;-77
2022/10/16 03:42:30;;;;;;;6.80;2.67;;;13.00;99.90;;;;;;4914821;29;20036;-77
2022/10/16 03:44:55;;;;;;;5.57;2.83;;;13.00;99.90;;;;;;4922636;29;20099;-77
2022/10/16 03:47:23;;;;;;;5.68;2.50;;;12.90;99.90;;;;;;4945713;29;20478;-77
2022/10/16 03:49:49;;;;;;;6.75;2.47;;;13.00;99.90;;;;;;4941178;29;20453;-77
2022/10/16 03:52:15;;;;;;;5.82;2.65;;;12.90;99.90;;;;;;4941968;29;20098;-77
2022/10/16 03:54:40;;;;;;;4.93;3.00;;;13.00;99.90;;;;;;4939189;29;20054;-77
2022/10/16 03:57:06;;;;;;;8.55;2.90;;;12.90;99.90;;;;;;4940329;29;20163;-77
2022/10/16 03:59:32;;;;;;;4.38;2.67;;;12.90;99.90;;;;;;4930289;29;20047;-77
2022/10/16 04:01:58;;;;;;;5.70;2.75;;;12.80;99.90;;;;;;4923845;29;20051;-77
2022/10/16 04:04:24;;;;;;;6.03;3.22;;;12.90;99.90;;;;;;4936684;29;20469;-77
2022/10/16 04:06:50;;;;;;;7.40;3.30;;;12.80;99.90;;;;;;4932627;29;20040;-77
2022/10/16 04:09:16;;;;;;;6.25;2.85;;;12.80;99.90;;;;;;4943505;29;20035;-77
2022/10/16 04:11:41;;;;;;;6.20;3.38;;;12.80;99.90;;;;;;4918840;29;20094;-77
2022/10/16 04:14:07;;;;;;;9.13;3.50;;;12.70;99.90;;;;;;4938411;29;20062;-77
2022/10/16 04:16:32;;;;;;;10.50;3.80;;;12.80;99.90;;;;;;4926531;29;20071;-77
2022/10/16 04:18:58;;;;;;;7.18;3.28;;;12.70;99.90;;;;;;4953971;28;20047;-77
2022/10/16 04:21:23;;;;;;;8.52;3.30;;;12.70;99.90;;;;;;4943826;28;20066;-77
2022/10/16 04:23:49;;;;;;;9.20;3.50;;;12.60;99.90;;;;;;4932295;29;20031;-77
2022/10/16 04:26:15;;;;;;;8.30;3.50;;;12.60;99.90;;;;;;4949953;29;20054;-77
2022/10/16 04:28:40;;;;;;;7.57;3.85;;;12.60;99.90;;;;;;4924405;29;20734;-77
2022/10/16 04:31:07;;;;;;;5.10;3.15;;;12.60;99.90;;;;;;4927240;29;20105;-77
2022/10/16 04:33:33;;;;;;;9.07;3.47;;;12.60;99.90;;;;;;4929304;28;20077;-77
2022/10/16 04:36:00;;;;;;;8.15;3.75;;;12.50;99.90;;;;;;4930669;29;20461;-77
2022/10/16 04:38:26;;;;;;;7.90;3.65;;;12.50;99.90;;;;;;4943655;29;20395;-77
2022/10/16 04:40:52;;;;;;;9.00;3.97;;;12.50;99.90;;;;;;4941533;29;20051;-77
2022/10/16 04:43:18;;;;;;;7.53;3.78;;;12.50;99.90;;;;;;4933007;29;20042;-77
2022/10/16 04:45:43;;;;;;;7.07;4.03;;;12.50;99.90;;;;;;4926269;28;20047;-77
2022/10/16 04:48:09;;;;;;;8.95;3.95;;;12.50;99.90;;;;;;4931130;29;20046;-77
2022/10/16 04:50:34;;;;;;;7.07;3.95;;;12.50;99.90;;;;;;4910034;29;20079;-77
2022/10/16 04:53:00;;;;;;;7.57;3.85;;;12.50;99.90;;;;;;4962574;28;20048;-77
2022/10/16 04:55:26;;;;;;;5.30;3.83;;;12.50;99.90;;;;;;4941091;29;20043;-77
2022/10/16 04:57:51;;;;;;;6.40;3.90;;;12.60;99.90;;;;;;4935497;29;20035;-77
2022/10/16 05:00:17;;;;;;;7.18;4.00;;;12.60;99.90;;;;;;4940749;28;20119;-77
2022/10/16 05:02:42;;;;;;;6.53;3.63;;;12.60;99.90;;;;;;4920675;29;20039;-77
2022/10/16 05:05:08;;;;;;;8.05;4.10;;;12.60;99.90;;;;;;4936370;29;20070;-77
2022/10/16 05:07:34;;;;;;;9.95;4.10;;;12.60;99.90;;;;;;4917840;29;20046;-77
2022/10/16 05:09:59;;;;;;;7.53;3.30;;;12.60;99.90;;;;;;4939940;29;20617;-77
2022/10/16 05:12:25;;;;;;;6.70;3.85;;;12.60;99.90;;;;;;4937222;29;20043;-77
2022/10/16 05:14:51;;;;;;;7.57;3.78;;;12.60;99.90;;;;;;4946156;29;20051;-77
2022/10/16 05:17:16;;;;;;;7.20;3.65;;;12.60;99.90;;;;;;4937013;29;20581;-77
2022/10/16 05:19:42;;;;;;;6.47;3.65;;;12.60;99.90;;;;;;4941279;28;20051;-77
2022/10/16 05:22:07;;;;;;;6.00;3.97;;;12.60;99.90;;;;;;4936826;29;20455;-77
2022/10/16 05:24:33;;;;;;;6.55;3.50;;;12.60;99.90;;;;;;4918862;29;20040;-77
2022/10/16 05:26:58;;;;;;;5.18;3.90;;;12.60;99.90;;;;;;4947011;29;20039;-77
2022/10/16 05:29:24;;;;;;;7.75;3.67;;;12.50;99.90;;;;;;4930667;29;20039;-77
2022/10/16 05:31:51;;;;;;;6.55;4.13;;;12.50;99.90;;;;;;4933055;29;20039;-77
2022/10/16 05:34:17;;;;;;;5.60;4.00;;;12.50;99.90;;;;;;4929273;29;20121;-77
2022/10/16 05:36:45;;;;;;;7.20;3.90;;;12.50;99.90;;;;;;4948008;28;20047;-77
2022/10/16 05:39:11;;;;;;;4.50;3.60;;;12.50;99.90;;;;;;4933633;29;20565;-77
2022/10/16 05:41:37;;;;;;;9.38;3.75;;;12.50;99.90;;;;;;4927768;28;23772;-77
2022/10/16 05:44:06;;;;;;;7.65;4.20;;;12.50;99.90;;;;;;4920393;29;20050;-76
2022/10/16 05:46:32;;;;;;;7.00;3.70;;;12.50;99.90;;;;;;4932125;29;20106;-77
2022/10/16 05:48:58;;;;;;;6.75;4.35;;;12.50;99.90;;;;;;4930150;29;20502;-77
2022/10/16 05:51:23;;;;;;;6.43;3.50;;;12.50;99.90;;;;;;4925016;28;20049;-77
2022/10/16 05:53:49;;;;;;;6.88;3.55;;;12.50;99.90;;;;;;4930967;29;20089;-77
2022/10/16 05:56:15;;;;;;;8.52;3.42;;;12.40;99.90;;;;;;4928590;29;20141;-77
2022/10/16 05:58:42;;;;;;;6.55;3.63;;;12.40;99.90;;;;;;4948047;28;20052;-77
2022/10/16 06:01:11;;;;;;;7.47;3.90;;;12.40;99.90;;;;;;4929038;29;20047;-77
2022/10/16 06:03:37;;;;;;;5.45;3.72;;;12.50;99.90;;;;;;4929280;28;20062;-77
2022/10/16 06:06:11;;;;;;;4.88;3.40;;;12.50;99.90;;;;;;4929999;29;20486;-77
2022/10/16 06:08:37;;;;;;;6.07;3.25;;;12.50;99.90;;;;;;4932068;29;20499;-77
2022/10/16 06:11:04;;;;;;;5.38;3.03;;;12.50;99.90;;;;;;4919444;28;20051;-77
2022/10/16 06:13:30;;;;;;;4.75;3.20;;;12.50;99.90;;;;;;4920450;28;20047;-77
2022/10/16 06:15:58;;;;;;;3.72;2.90;;;12.50;99.90;;;;;;4923456;29;20079;-77
2022/10/16 06:18:24;;;;;;;10.48;3.63;;;12.50;99.90;;;;;;4930541;28;20043;-77
2022/10/16 06:20:50;;;;;;;8.98;3.38;;;12.50;99.90;;;;;;4940854;29;20053;-77
2022/10/16 06:23:15;;;;;;;5.35;3.03;;;12.50;99.90;;;;;;4931796;29;20039;-77
2022/10/16 06:25:41;;;;;;;7.28;3.05;;;12.50;99.90;;;;;;4939538;29;20043;-77
2022/10/16 06:28:07;;;;;;;3.08;2.67;;;12.60;99.90;;;;;;4935438;29;20071;-77
2022/10/16 06:30:32;;;;;;;4.80;3.00;;;12.60;99.90;;;;;;4932919;29;20687;-77
2022/10/16 06:32:58;;;;;;;7.53;2.88;;;12.60;99.90;;;;;;4928516;29;20055;-77
2022/10/16 06:35:23;;;;;;;7.15;2.78;;;12.60;99.90;;;;;;4933181;29;20047;-77
2022/10/16 06:37:49;;;;;;;5.80;2.90;;;12.60;99.90;;;;;;4928801;29;20046;-77
2022/10/16 06:40:15;;;;;;;5.90;2.72;;;12.70;99.90;;;;;;4934127;29;20139;-77
2022/10/16 06:42:41;;;;;;;4.80;2.50;;;12.70;99.90;;;;;;4927615;29;20050;-77
2022/10/16 06:45:07;;;;;;;3.75;2.20;;;12.70;99.90;;;;;;4936239;29;20631;-77
2022/10/16 06:47:33;;;;;;;4.63;2.80;;;12.70;99.90;;;;;;4938001;29;20039;-77
2022/10/16 06:49:58;;;;;;;5.82;2.50;;;12.70;99.90;;;;;;4938254;29;20043;-77
2022/10/16 06:52:24;;;;;;;5.72;2.85;;;12.70;99.90;;;;;;4939743;29;20046;-77
2022/10/16 06:54:50;;;;;;;8.45;2.60;;;12.80;99.90;;;;;;4938451;29;20083;-77
2022/10/16 06:57:15;;;;;;;8.52;2.80;;;12.80;99.90;;;;;;4938990;29;20098;-77
2022/10/16 06:59:41;;;;;;;5.03;2.67;;;12.80;99.90;;;;;;4923228;29;20049;-78
2022/10/16 07:02:08;;;;;;;9.82;2.58;;;12.90;99.90;;;;;;4945145;29;20047;-77
2022/10/16 07:04:35;;;;;;;8.48;2.63;;;12.90;99.90;;;;;;4929858;29;20050;-77
2022/10/16 07:07:00;;;;;;;7.25;2.67;;;13.00;99.90;;;;;;4913665;29;20032;-77
2022/10/16 07:09:28;;;;;;;8.43;2.67;;;12.90;99.90;;;;;;4925651;29;20047;-77
2022/10/16 07:11:54;;;;;;;7.63;2.40;;;12.90;99.90;;;;;;4921842;29;20051;-77
2022/10/16 07:14:21;;;;;;;5.28;2.35;;;13.00;99.90;;;;;;4918126;29;20047;-77
2022/10/16 07:16:47;;;;;;;4.72;2.20;;;13.00;99.90;;;;;;4922200;29;20130;-77
2022/10/16 07:19:15;;;;;;;4.32;2.22;;;13.10;99.90;;;;;;4925688;28;20771;-77
2022/10/16 07:21:41;;;;;;;5.60;2.50;;;13.10;99.90;;;;;;4931736;29;20062;-76
2022/10/16 07:24:13;;;;;;;5.65;2.15;;;13.10;99.90;;;;;;4924376;29;20170;-77
2022/10/16 07:26:39;;;;;;;5.57;2.35;;;13.20;99.90;;;;;;4930939;29;20036;-77
2022/10/16 07:29:15;;;;;;;7.50;2.30;;;13.30;99.90;;;;;;4918186;29;20098;-76
2022/10/16 07:31:41;;;;;;;6.45;2.28;;;13.30;99.90;;;;;;4918078;29;20126;-77
2022/10/16 07:34:07;;;;;;;5.53;2.20;;;13.30;99.90;;;;;;4934417;28;20051;-77
2022/10/16 07:36:33;;;;;;;8.95;2.65;;;13.40;99.90;;;;;;4932407;29;20043;-77
2022/10/16 07:38:58;;;;;;;4.85;2.22;;;13.40;99.90;;;;;;4934830;28;20051;-77
2022/10/16 07:41:24;;;;;;;4.57;1.85;;;13.40;99.90;;;;;;4930805;29;20109;-77
2022/10/16 07:43:52;;;;;;;9.60;1.85;;;13.50;99.90;;;;;;4938105;28;20135;-77
2022/10/16 07:46:19;;;;;;;8.10;2.17;;;13.50;99.90;;;;;;4935757;29;20093;-77
2022/10/16 07:48:46;;;;;;;3.58;1.63;;;13.50;99.90;;;;;;4929542;29;20035;-77
2022/10/16 07:51:16;;;;;;;5.70;2.10;;;13.60;99.90;;;;;;4917628;28;20039;-77
2022/10/16 07:53:42;;;;;;;4.35;1.85;;;13.60;99.90;;;;;;4935706;29;20042;-77
2022/10/16 07:56:08;;;;;;;7.70;2.22;;;13.60;99.90;;;;;;4923891;29;20055;-77
2022/10/16 07:58:36;;;;;;;3.58;2.05;;;13.60;99.90;;;;;;4924429;29;20043;-77
2022/10/16 08:01:14;;;;;;;3.33;1.70;;;13.60;99.90;;;;;;4943156;29;20052;-77
2022/10/16 08:03:45;;;;;;;6.45;1.65;;;13.70;99.90;;;;;;4941299;28;20380;-78
2022/10/16 08:06:10;;;;;;;6.50;1.75;;;13.70;99.90;;;;;;4957400;28;20041;-78
2022/10/16 08:08:36;;;;;;;4.93;1.70;;;13.80;99.90;;;;;;4930238;29;20043;-77
2022/10/16 08:11:03;;;;;;;4.78;1.42;;;13.80;99.90;;;;;;4941525;29;20051;-77
2022/10/16 08:13:30;;;;;;;4.28;1.50;;;13.90;99.90;;;;;;4929734;29;20058;-77
2022/10/16 08:15:56;;;;;;;4.65;1.50;;;13.90;99.90;;;;;;4934858;29;20426;-77
2022/10/16 08:18:22;;;;;;;4.95;1.52;;;14.00;99.90;;;;;;4944503;29;20039;-77
2022/10/16 08:20:47;;;;;;;5.32;1.35;;;14.00;99.90;;;;;;4929069;29;20047;-77
2022/10/16 08:23:13;;;;;;;5.28;1.20;;;14.10;99.90;;;;;;4931884;29;20035;-76
2022/10/16 08:25:40;;;;;;;3.45;1.05;;;14.10;99.90;;;;;;4936949;29;20047;-77
2022/10/16 08:28:09;;;;;;;3.53;1.38;;;14.20;99.90;;;;;;4936154;28;20134;-78
2022/10/16 08:30:35;;;;;;;3.97;1.27;;;14.20;99.90;;;;;;4935164;29;20058;-78
2022/10/16 08:33:01;;;;;;;4.50;1.52;;;14.20;99.90;;;;;;4921580;29;20090;-78
2022/10/16 08:35:27;;;;;;;4.40;1.88;;;14.20;99.90;;;;;;4917845;28;20166;-77
2022/10/16 08:37:53;;;;;;;5.53;1.70;;;14.20;99.90;;;;;;4924998;29;20062;-77
2022/10/16 08:40:25;;;;;;;6.47;2.60;;;14.20;99.90;;;;;;4915075;28;20070;-77
2022/10/16 08:43:09;;;;;;;5.10;2.05;;;14.30;99.90;;;;;;4942427;28;20036;-77
2022/10/16 08:46:07;;;;;;;5.13;2.30;;;14.20;99.90;;;;;;4935019;29;20047;-77
2022/10/16 08:48:47;;;;;;;6.25;2.28;;;14.30;99.90;;;;;;4941216;28;20189;-77
2022/10/16 08:51:26;;;;;;;4.13;2.10;;;14.30;99.90;;;;;;4934155;29;20066;-77
2022/10/16 08:54:02;;;;;;;7.65;2.53;;;14.30;99.90;;;;;;4922260;29;20043;-77
2022/10/16 08:56:28;;;;;;;10.80;2.60;;;14.30;99.90;;;;;;4928540;28;20043;-77
2022/10/16 08:58:54;;;;;;;5.30;2.47;;;14.40;99.90;;;;;;4937046;28;20043;-77
2022/10/16 09:01:25;;;;;;;9.23;2.38;;;14.40;99.90;;;;;;4930199;29;20058;-77
2022/10/16 09:04:28;;;;;;;6.85;2.22;;;14.40;99.90;;;;;;4933351;29;20050;-77
2022/10/16 09:11:08;;;;;;;6.80;2.03;;;14.40;99.90;;;;;;4944267;29;20070;-77
2022/10/16 09:13:52;;;;;;;8.32;2.20;;;14.50;99.90;;;;;;4934895;28;20046;-77
2022/10/16 09:16:47;;;;;;;7.43;2.00;;;14.60;99.90;;;;;;4925603;28;20043;-77
2022/10/16 09:27:14;;;;;;;7.10;1.98;;;14.60;99.90;;;;;;4953241;29;20098;-83
2022/10/16 09:29:43;;;;;;;7.15;1.88;;;14.70;99.90;;;;;;4934143;29;20047;-82
2022/10/16 09:32:20;;;;;;;8.88;2.00;;;14.70;99.90;;;;;;4929932;28;20078;-82
2022/10/16 09:34:57;;;;;;;6.60;2.10;;;14.80;99.90;;;;;;4927983;29;20074;-82
2022/10/16 09:37:35;;;;;;;7.65;1.65;;;14.80;99.90;;;;;;4955943;29;20425;-81
2022/10/16 09:40:02;;;;;;;8.73;2.25;;;14.90;99.90;;;;;;4926626;29;20047;-79
2022/10/16 09:42:35;;;;;;;9.13;1.80;;;15.00;99.90;;;;;;4937326;29;20078;-78
2022/10/16 09:45:01;;;;;;;12.23;2.30;;;15.10;99.90;;;;;;4936085;29;20043;-78
2022/10/16 09:47:28;;;;;;;7.00;2.00;;;15.10;99.90;;;;;;4936947;29;20047;-78
2022/10/16 09:50:20;;;;;;;8.30;2.25;;;15.20;99.90;;;;;;4939101;29;20039;-78
2022/10/16 09:52:45;;;;;;;8.20;2.00;;;15.20;99.90;;;;;;4940431;29;20058;-78
2022/10/16 09:55:18;;;;;;;9.73;2.00;;;15.30;99.90;;;;;;4916801;29;20047;-78
2022/10/16 09:57:51;;;;;;;9.95;1.73;;;15.40;99.90;;;;;;4918000;29;20144;-79
2022/10/16 10:00:18;;;;;;;8.23;2.13;;;15.50;99.90;;;;;;4935845;29;20154;-79
2022/10/16 10:02:44;;;;;;;8.98;2.10;;;15.50;99.90;;;;;;4921143;29;20040;-79
2022/10/16 10:05:28;;;;;;;12.43;2.40;;;15.60;99.90;;;;;;4938501;29;20043;-79
2022/10/16 10:07:58;;;;;;;8.77;1.73;;;15.50;99.90;;;;;;4943394;29;20039;-79
2022/10/16 10:10:29;;;;;;;9.43;1.90;;;15.60;99.90;;;;;;4926420;29;20036;-78
2022/10/16 10:12:56;;;;;;;12.43;2.22;;;15.70;99.90;;;;;;4935720;29;20056;-78
2022/10/16 10:15:23;;;;;;;10.60;1.83;;;15.70;99.90;;;;;;4927065;29;20075;-79
2022/10/16 10:17:50;;;;;;;9.40;2.05;;;15.80;99.90;;;;;;4938936;29;20046;-79
2022/10/16 10:20:25;;;;;;;12.38;2.33;;;15.90;99.90;;;;;;4927797;29;20051;-79
2022/10/16 10:22:51;;;;;;;13.80;2.63;;;16.00;99.90;;;;;;4950496;28;20050;-79
2022/10/16 10:25:16;;;;;;;7.30;2.15;;;15.90;99.90;;;;;;4936627;29;20047;-79
2022/10/16 10:28:01;;;;;;;11.50;2.50;;;15.90;99.90;;;;;;4920286;28;20122;-79
2022/10/16 10:30:59;;;;;;;12.20;1.75;;;15.90;99.90;;;;;;4937991;29;20046;-79
2022/10/16 10:33:38;;;;;;;12.00;1.92;;;16.00;99.90;;;;;;4939788;29;20048;-79
2022/10/16 10:36:15;;;;;;;10.77;2.10;;;16.00;99.90;;;;;;4936581;29;20122;-79
2022/10/16 10:38:57;;;;;;;8.93;2.00;;;16.10;99.90;;;;;;4927772;29;20040;-79
2022/10/16 10:41:42;;;;;;;13.20;1.98;;;16.10;99.90;;;;;;4921540;29;20438;-79
2022/10/16 10:44:22;;;;;;;9.63;2.13;;;16.20;99.90;;;;;;4943417;29;20051;-79
2022/10/16 10:46:54;;;;;;;8.80;2.17;;;16.30;99.90;;;;;;4917821;29;20571;-79
2022/10/16 10:49:25;;;;;;;9.70;1.88;;;16.30;99.90;;;;;;4940861;29;20044;-79
2022/10/16 10:52:09;;;;;;;11.40;2.25;;;16.40;99.90;;;;;;4921274;29;20048;-79
2022/10/16 10:54:53;;;;;;;11.10;2.38;;;16.50;99.90;;;;;;4921775;29;20118;-79
2022/10/16 10:57:32;;;;;;;15.10;2.72;;;16.50;99.90;;;;;;4954426;29;20047;-79
2022/10/16 11:00:18;;;;;;;12.23;2.38;;;16.50;99.90;;;;;;4928331;29;20054;-79
2022/10/16 11:03:26;;;;;;;13.48;2.58;;;16.40;99.90;;;;;;4939928;29;20043;-79
2022/10/16 11:05:59;;;;;;;9.80;1.92;;;16.40;99.90;;;;;;4931130;29;20094;-79
2022/10/16 11:08:37;;;;;;;13.20;2.40;;;16.40;99.90;;;;;;4936558;29;20130;-79
2022/10/16 11:11:14;;;;;;;18.15;2.85;;;16.60;99.90;;;;;;4948954;29;20050;-79
2022/10/16 11:14:04;;;;;;;14.23;2.72;;;16.40;99.90;;;;;;4934710;29;20086;-79
2022/10/16 11:16:36;;;;;;;8.68;2.05;;;16.40;99.90;;;;;;4924149;29;20065;-79
2022/10/16 11:19:36;;;;;;;10.82;2.35;;;16.40;99.90;;;;;;4930786;29;20565;-79
2022/10/16 11:22:24;;;;;;;12.82;2.50;;;16.30;99.90;;;;;;4930417;29;20058;-79
2022/10/16 11:25:08;;;;;;;10.68;2.38;;;16.20;99.90;;;;;;4948491;28;20082;-79
2022/10/16 11:27:47;;;;;;;8.57;2.03;;;16.10;99.90;;;;;;4921692;29;20054;-79
2022/10/16 11:30:27;;;;;;;12.77;2.28;;;16.30;99.90;;;;;;4921555;29;20390;-79
2022/10/16 11:33:07;;;;;;;7.32;1.90;;;16.50;99.90;;;;;;4925297;29;20047;-79
2022/10/16 11:35:43;;;;;;;8.93;1.90;;;16.50;99.90;;;;;;4953547;29;20047;-79
2022/10/16 11:38:41;;;;;;;10.15;1.85;;;16.50;99.90;;;;;;4928547;29;20525;-79
2022/10/16 11:41:29;;;;;;;12.38;2.22;;;16.80;99.90;;;;;;4918641;29;20057;-79
2022/10/16 11:44:25;;;;;;;8.32;2.10;;;17.00;99.90;;;;;;4943472;29;20051;-79
2022/10/16 11:47:29;;;;;;;10.88;2.45;;;17.20;99.90;;;;;;4940680;29;20132;-78
2022/10/16 11:50:12;;;;;;;9.85;2.50;;;17.50;99.90;;;;;;4938166;29;20126;-78
2022/10/16 11:52:51;;;;;;;9.10;1.83;;;17.60;99.90;;;;;;4935828;29;20387;-79
2022/10/16 11:55:22;;;;;;;9.25;2.25;;;17.70;99.90;;;;;;4935741;29;20043;-79
2022/10/16 11:57:53;;;;;;;11.43;2.17;;;17.70;99.90;;;;;;4936645;29;20546;-78
2022/10/16 12:00:30;;;;;;;7.90;1.98;;;17.60;99.90;;;;;;4928289;29;20126;-79
2022/10/16 12:03:00;;;;;;;10.43;2.67;;;17.40;99.90;;;;;;4933269;29;20054;-79
2022/10/16 12:05:48;;;;;;;11.52;2.20;;;17.20;99.90;;;;;;4938140;28;20061;-79
2022/10/16 12:08:16;;;;;;;9.70;2.20;;;16.90;99.90;;;;;;4946377;28;20043;-79
2022/10/16 12:10:45;;;;;;;12.23;2.17;;;16.70;99.90;;;;;;4934894;29;20051;-79
2022/10/16 12:13:32;;;;;;;12.77;2.20;;;16.60;99.90;;;;;;4936955;29;20082;-76
2022/10/16 12:16:13;;;;;;;13.65;2.30;;;16.60;99.90;;;;;;4944581;29;20105;-79
2022/10/16 12:18:48;;;;;;;13.57;2.05;;;16.60;99.90;;;;;;4922879;28;20059;-79
2022/10/16 12:21:16;;;;;;;9.13;1.83;;;16.80;99.90;;;;;;4941754;29;20043;-79
2022/10/16 12:23:49;;;;;;;12.98;1.95;;;16.80;99.90;;;;;;4926267;29;20044;-79
2022/10/16 12:26:27;;;;;;;9.82;2.15;;;17.00;99.90;;;;;;4925393;29;20051;-79
2022/10/16 12:28:54;;;;;;;9.35;2.00;;;17.00;99.90;;;;;;4944135;29;20046;-79
2022/10/16 12:31:21;;;;;;;15.35;2.22;;;17.10;99.90;;;;;;4941906;29;20043;-78
2022/10/16 12:33:59;;;;;;;11.07;1.80;;;17.30;99.90;;;;;;4940185;29;20502;-79
2022/10/16 12:36:33;;;;;;;13.25;2.17;;;17.80;99.90;;;;;;4927230;29;20048;-79
2022/10/16 12:38:59;;;;;;;8.80;1.80;;;18.00;99.90;;;;;;4947333;29;20525;-79
2022/10/16 12:41:35;;;;;;;13.05;2.80;;;18.00;99.90;;;;;;4922286;29;20044;-78
2022/10/16 12:44:01;;;;;;;8.45;1.95;;;17.90;99.90;;;;;;4924834;29;20075;-78
2022/10/16 12:46:30;;;;;;;11.30;2.65;;;17.50;99.90;;;;;;4934105;29;20039;-78
2022/10/16 12:49:21;;;;;;;9.15;2.10;;;17.40;99.90;;;;;;4936057;29;20075;-82
2022/10/16 12:51:46;;;;;;;12.85;2.33;;;17.30;99.90;;;;;;4931601;29;20059;-77
2022/10/16 12:54:27;;;;;;;11.70;2.40;;;17.30;99.90;;;;;;4931105;29;21193;-78
2022/10/16 12:57:17;;;;;;;11.35;2.97;;;17.30;99.90;;;;;;4931387;29;20051;-78
2022/10/16 12:59:55;;;;;;;9.75;1.88;;;17.40;99.90;;;;;;4949511;28;20047;-77
2022/10/16 13:02:45;;;;;;;10.48;2.08;;;17.50;99.90;;;;;;4934022;29;20055;-77
2022/10/16 13:05:14;;;;;;;9.07;1.75;;;17.80;99.90;;;;;;4929892;29;20063;-76
2022/10/16 13:08:03;;;;;;;11.52;1.90;;;18.10;99.90;;;;;;4931715;29;20276;-76
2022/10/16 13:10:39;;;;;;;13.55;2.17;;;18.30;99.90;;;;;;4923459;29;20043;-77
2022/10/16 13:13:24;;;;;;;8.48;1.80;;;18.30;99.90;;;;;;4926985;28;20047;-76
2022/10/16 13:15:55;;;;;;;5.07;1.73;;;18.50;99.90;;;;;;4932250;28;20438;-76
2022/10/16 13:18:32;;;;;;;10.50;2.20;;;18.50;99.90;;;;;;4925463;28;20050;-78